Time;durP1;ratioP1;P1;durP2;ratioP2;P2;SDS_P1;SDS_P2;PMS_P1;PMS_P2;Temp;Humidity;BMP_temperature;BMP_pressure;BME280_temperature;BME280_humidity;BME280_pressure;Samples;Min_cycle;Max_cycle;Signal;HPM_P1;HPM_P2
2023/01/19 00:01:00;;;;;;;50.08;47.67;;;-1.60;99.90;;;;;;5089848;28;20035;-81
2023/01/19 00:03:26;;;;;;;59.53;56.45;;;-1.70;99.90;;;;;;5093360;28;20597;-82
2023/01/19 00:05:51;;;;;;;59.50;56.58;;;-1.70;99.90;;;;;;5094849;28;20021;-80
2023/01/19 00:08:17;;;;;;;60.10;57.00;;;-1.70;99.90;;;;;;5086428;28;20016;-82
2023/01/19 00:10:46;;;;;;;56.90;54.13;;;-1.70;99.90;;;;;;5101712;28;20198;-83
2023/01/19 00:13:13;;;;;;;68.80;65.75;;;-1.70;99.90;;;;;;5085260;28;20051;-81
2023/01/19 00:15:38;;;;;;;60.47;57.47;;;-1.70;99.90;;;;;;5096144;28;20122;-81
2023/01/19 00:18:05;;;;;;;58.67;55.85;;;-1.70;99.90;;;;;;5070339;28;20620;-81
2023/01/19 00:20:31;;;;;;;51.47;48.92;;;-1.70;99.90;;;;;;5087871;28;20109;-82
2023/01/19 00:22:57;;;;;;;53.50;50.53;;;-1.70;99.90;;;;;;5079117;28;20723;-81
2023/01/19 00:25:23;;;;;;;53.45;50.40;;;-1.70;99.90;;;;;;5082295;28;20024;-81
2023/01/19 00:27:49;;;;;;;53.03;50.30;;;-1.70;99.90;;;;;;5095302;28;20043;-81
2023/01/19 00:30:15;;;;;;;51.22;48.05;;;-1.60;99.90;;;;;;5087912;28;20036;-82
2023/01/19 00:32:41;;;;;;;48.25;45.72;;;-1.70;99.90;;;;;;5087654;28;20036;-83
2023/01/19 00:35:07;;;;;;;47.45;45.13;;;-1.80;99.90;;;;;;5097989;28;20212;-82
2023/01/19 00:37:33;;;;;;;38.80;36.85;;;-1.90;99.90;;;;;;5093643;28;20024;-82
2023/01/19 00:39:58;;;;;;;36.22;33.83;;;-1.90;99.90;;;;;;5091081;28;20786;-81
2023/01/19 00:42:39;;;;;;;44.75;42.33;;;-2.00;99.90;;;;;;5082881;28;20040;-83
2023/01/19 00:45:10;;;;;;;34.72;32.40;;;-2.10;99.90;;;;;;5085607;28;20028;-84
2023/01/19 00:47:36;;;;;;;34.63;32.10;;;-2.20;99.90;;;;;;5083970;28;20526;-82
2023/01/19 00:50:02;;;;;;;37.85;35.75;;;-2.30;99.90;;;;;;5101753;28;20051;-82
2023/01/19 00:52:28;;;;;;;40.55;38.50;;;-2.40;99.90;;;;;;5093176;28;20107;-84
2023/01/19 00:54:53;;;;;;;38.88;36.65;;;-2.50;99.90;;;;;;5085695;28;20060;-81
2023/01/19 00:57:19;;;;;;;42.20;40.28;;;-2.50;99.90;;;;;;5100439;28;20036;-81
2023/01/19 00:59:46;;;;;;;44.35;41.80;;;-2.60;99.90;;;;;;5088886;28;20023;-80
2023/01/19 01:02:14;;;;;;;46.13;44.05;;;-2.60;99.90;;;;;;5095314;28;20070;-82
2023/01/19 01:04:44;;;;;;;39.63;36.70;;;-2.60;99.90;;;;;;5090178;28;20564;-83
2023/01/19 01:07:09;;;;;;;45.85;43.53;;;-2.80;99.90;;;;;;5091535;28;20042;-82
2023/01/19 01:09:35;;;;;;;57.63;54.60;;;-2.80;99.90;;;;;;5088707;28;20398;-83
2023/01/19 01:12:01;;;;;;;77.55;74.28;;;-2.90;99.90;;;;;;5093855;28;20091;-82
2023/01/19 01:14:27;;;;;;;61.80;58.63;;;-2.90;99.90;;;;;;5101177;28;20028;-82
2023/01/19 01:16:53;;;;;;;79.50;76.05;;;-3.00;99.90;;;;;;5090890;28;20020;-84
2023/01/19 01:19:20;;;;;;;59.17;56.47;;;-3.00;99.90;;;;;;5102928;28;20048;-82
2023/01/19 01:21:46;;;;;;;59.00;56.17;;;-2.90;99.90;;;;;;5095100;28;20035;-83
2023/01/19 01:24:11;;;;;;;52.38;50.03;;;-3.00;99.90;;;;;;5084049;28;20035;-82
2023/01/19 01:26:38;;;;;;;52.42;49.40;;;-3.10;99.90;;;;;;5093085;28;20024;-86
2023/01/19 01:29:07;;;;;;;70.38;67.43;;;-3.20;99.90;;;;;;5095353;28;20033;-84
2023/01/19 01:31:33;;;;;;;62.75;59.08;;;-3.20;99.90;;;;;;5092561;28;20032;-84
2023/01/19 01:33:58;;;;;;;63.28;60.25;;;-3.10;99.90;;;;;;5088677;28;20397;-85
2023/01/19 01:36:27;;;;;;;59.03;54.15;;;-3.30;99.90;;;;;;5097978;28;20111;-83
2023/01/19 01:38:53;;;;;;;61.15;57.65;;;-3.30;99.90;;;;;;5083698;28;20073;-83
2023/01/19 01:41:19;;;;;;;66.70;63.92;;;-3.40;99.90;;;;;;5096598;28;20043;-84
2023/01/19 01:43:49;;;;;;;59.50;56.80;;;-3.30;99.90;;;;;;5099294;28;20028;-81
2023/01/19 01:46:16;;;;;;;58.95;56.17;;;-3.40;99.90;;;;;;5096618;28;20046;-83
2023/01/19 01:48:51;;;;;;;55.10;52.47;;;-3.30;99.90;;;;;;5107649;28;20031;-83
2023/01/19 01:51:26;;;;;;;63.60;60.58;;;-3.40;99.90;;;;;;5088234;28;20027;-83
2023/01/19 01:54:05;;;;;;;54.33;51.80;;;-3.50;99.90;;;;;;5080801;28;20068;-84
2023/01/19 01:56:43;;;;;;;65.05;62.08;;;-3.60;99.90;;;;;;5088170;28;20032;-84
2023/01/19 01:59:16;;;;;;;63.83;60.03;;;-3.60;99.90;;;;;;5097076;28;20027;-82
2023/01/19 02:04:28;;;;;;;60.38;57.78;;;-3.80;99.90;;;;;;5097355;28;20112;-81
2023/01/19 02:15:16;;;;;;;58.33;55.45;;;-4.00;99.90;;;;;;5086798;28;20043;-84
2023/01/19 02:17:43;;;;;;;51.92;49.42;;;-4.00;99.90;;;;;;5103202;28;20037;-82
2023/01/19 02:20:10;;;;;;;61.13;57.65;;;-4.10;99.90;;;;;;5097286;28;20052;-84
2023/01/19 02:22:45;;;;;;;61.40;58.50;;;-4.00;99.90;;;;;;5097092;28;20058;-81
2023/01/19 02:25:11;;;;;;;67.90;64.80;;;-4.00;99.90;;;;;;5089261;28;20020;-83
2023/01/19 02:27:38;;;;;;;72.22;68.63;;;-4.00;99.90;;;;;;5089774;28;20394;-84
2023/01/19 02:30:05;;;;;;;74.35;70.55;;;-4.10;99.90;;;;;;5095337;28;20031;-84
2023/01/19 02:32:31;;;;;;;58.67;55.70;;;-4.10;99.90;;;;;;5096364;28;20095;-81
2023/01/19 02:34:57;;;;;;;54.45;51.35;;;-4.20;99.90;;;;;;5101137;28;20103;-82
2023/01/19 02:37:24;;;;;;;55.83;53.17;;;-4.10;99.90;;;;;;5090053;28;20062;-82
2023/01/19 02:40:00;;;;;;;50.47;48.13;;;-4.20;99.90;;;;;;5089460;28;20481;-84
2023/01/19 02:42:28;;;;;;;49.05;46.63;;;-4.20;99.90;;;;;;5092485;28;20058;-83
2023/01/19 02:44:55;;;;;;;64.72;61.13;;;-4.20;99.90;;;;;;5092118;28;20042;-85
2023/01/19 02:47:21;;;;;;;62.17;59.47;;;-4.30;99.90;;;;;;5083961;28;20051;-83
2023/01/19 02:49:56;;;;;;;56.17;53.33;;;-4.30;99.90;;;;;;5089199;28;20016;-84
2023/01/19 02:52:22;;;;;;;50.58;47.95;;;-4.30;99.90;;;;;;5088168;28;20039;-84
2023/01/19 02:55:00;;;;;;;46.80;44.28;;;-4.40;99.90;;;;;;5091984;28;20029;-84
2023/01/19 02:57:51;;;;;;;55.83;53.38;;;-4.40;99.90;;;;;;5101865;28;20115;-84
2023/01/19 03:00:28;;;;;;;51.20;48.13;;;-4.30;99.90;;;;;;5093863;28;20075;-84
2023/01/19 03:03:02;;;;;;;48.53;44.65;;;-4.30;99.90;;;;;;5100124;28;20379;-85
2023/01/19 03:05:42;;;;;;;49.22;46.58;;;-4.30;99.90;;;;;;5100484;28;20024;-84
2023/01/19 03:08:16;;;;;;;56.58;53.83;;;-4.40;99.90;;;;;;5092146;28;20026;-85
2023/01/19 03:10:56;;;;;;;42.70;40.35;;;-4.40;99.90;;;;;;5087793;28;20035;-85
2023/01/19 03:13:31;;;;;;;39.00;37.05;;;-4.50;99.90;;;;;;5087309;28;20024;-84
2023/01/19 03:16:22;;;;;;;44.40;42.15;;;-4.50;99.90;;;;;;5096915;28;20021;-85
2023/01/19 03:18:55;;;;;;;38.55;35.95;;;-4.60;99.90;;;;;;5085203;28;20375;-82
2023/01/19 03:21:25;;;;;;;38.88;36.75;;;-4.70;99.90;;;;;;5106481;28;20055;-83
2023/01/19 03:23:53;;;;;;;39.03;36.78;;;-4.60;99.90;;;;;;5093706;28;20655;-85
2023/01/19 03:26:26;;;;;;;68.63;65.32;;;-4.70;99.90;;;;;;5078337;28;20027;-84
2023/01/19 03:28:54;;;;;;;99.47;94.43;;;-4.60;99.90;;;;;;5093621;28;20484;-85
2023/01/19 03:31:23;;;;;;;58.22;55.40;;;-4.50;99.90;;;;;;5095189;28;20047;-84
2023/01/19 03:33:54;;;;;;;49.97;47.47;;;-4.70;99.90;;;;;;5092941;28;20805;-84
2023/01/19 03:36:30;;;;;;;42.97;40.70;;;-4.80;99.90;;;;;;5094089;28;20043;-83
2023/01/19 03:38:58;;;;;;;39.75;37.78;;;-4.90;99.90;;;;;;5104306;28;20032;-86
2023/01/19 03:41:26;;;;;;;39.58;37.15;;;-4.90;99.90;;;;;;5093412;28;20039;-85
2023/01/19 03:43:54;;;;;;;39.58;37.55;;;-5.00;99.90;;;;;;5099258;28;20024;-85
2023/01/19 03:46:21;;;;;;;44.85;42.47;;;-5.10;99.90;;;;;;5097180;28;20040;-84
2023/01/19 03:48:47;;;;;;;48.58;45.97;;;-5.20;99.90;;;;;;5096414;28;20022;-85
2023/01/19 03:51:14;;;;;;;58.25;55.75;;;-5.20;99.90;;;;;;5091062;28;20124;-86
2023/01/19 03:53:40;;;;;;;55.70;53.08;;;-5.10;99.90;;;;;;5094507;28;20020;-85
2023/01/19 03:56:22;;;;;;;61.22;58.20;;;-5.20;99.90;;;;;;5095734;28;20039;-83
2023/01/19 03:58:48;;;;;;;45.67;43.25;;;-5.10;99.90;;;;;;5078733;28;20032;-84
2023/01/19 04:01:15;;;;;;;43.95;41.90;;;-5.10;99.90;;;;;;5081737;28;20055;-82
2023/01/19 04:03:42;;;;;;;45.05;42.78;;;-5.10;99.90;;;;;;5091250;28;20103;-86
2023/01/19 04:06:09;;;;;;;52.13;49.42;;;-5.20;99.90;;;;;;5085897;28;20023;-85
2023/01/19 04:08:36;;;;;;;44.17;42.03;;;-5.20;99.90;;;;;;5097717;28;20079;-84
2023/01/19 04:11:03;;;;;;;84.75;80.35;;;-5.30;99.90;;;;;;5081917;28;20486;-85
2023/01/19 04:13:30;;;;;;;95.20;90.43;;;-5.10;99.90;;;;;;5093707;28;20478;-84
2023/01/19 04:16:03;;;;;;;70.57;67.20;;;-5.20;99.90;;;;;;5093769;28;20115;-84
2023/01/19 04:18:30;;;;;;;70.40;67.03;;;-5.30;99.90;;;;;;5095857;28;20583;-83
2023/01/19 04:21:03;;;;;;;63.03;60.03;;;-5.30;99.90;;;;;;5088239;28;20031;-84
2023/01/19 04:23:32;;;;;;;53.17;50.38;;;-5.40;99.90;;;;;;5095709;28;20114;-83
2023/01/19 04:26:05;;;;;;;88.40;84.72;;;-5.30;99.90;;;;;;5092657;28;20051;-83
2023/01/19 04:28:33;;;;;;;93.30;89.22;;;-5.30;99.90;;;;;;5095688;28;20023;-84
2023/01/19 04:30:59;;;;;;;128.48;123.38;;;-5.20;99.90;;;;;;5106911;28;20089;-83
2023/01/19 04:33:26;;;;;;;102.57;98.70;;;-5.20;99.90;;;;;;5091398;28;20498;-83
2023/01/19 04:35:54;;;;;;;90.20;86.60;;;-5.20;99.90;;;;;;5096224;28;20393;-82
2023/01/19 04:38:20;;;;;;;113.47;109.13;;;-5.30;99.90;;;;;;5099327;28;20788;-80
2023/01/19 04:40:47;;;;;;;111.20;106.57;;;-5.30;99.90;;;;;;5103019;28;20043;-84
2023/01/19 04:43:14;;;;;;;73.00;69.65;;;-5.30;99.90;;;;;;5098985;28;20111;-83
2023/01/19 04:45:43;;;;;;;107.05;102.47;;;-5.30;99.90;;;;;;5091974;28;20704;-83
2023/01/19 04:48:10;;;;;;;103.82;99.57;;;-5.20;99.90;;;;;;5093043;28;20058;-80
2023/01/19 04:50:36;;;;;;;120.40;114.85;;;-5.20;99.90;;;;;;5090803;28;20161;-83
2023/01/19 04:53:01;;;;;;;292.92;277.67;;;-5.30;99.90;;;;;;5100880;28;20126;-83
2023/01/19 04:55:27;;;;;;;129.35;123.93;;;-5.20;99.90;;;;;;5098566;28;20028;-82
2023/01/19 04:57:53;;;;;;;179.05;172.10;;;-5.20;99.90;;;;;;5090608;28;20401;-83
2023/01/19 05:00:19;;;;;;;201.50;193.77;;;-5.00;99.90;;;;;;5096701;28;20043;-83
2023/01/19 05:02:45;;;;;;;208.65;200.48;;;-4.90;99.90;;;;;;5096716;28;20060;-84
2023/01/19 05:05:12;;;;;;;175.02;167.63;;;-4.80;99.90;;;;;;5103364;28;20024;-85
2023/01/19 05:07:38;;;;;;;180.02;171.25;;;-4.80;99.90;;;;;;5107645;28;20024;-84
2023/01/19 05:10:05;;;;;;;168.57;161.93;;;-4.80;99.90;;;;;;5104854;28;20032;-84
2023/01/19 05:12:31;;;;;;;178.60;171.30;;;-4.70;99.90;;;;;;5100980;28;20031;-84
2023/01/19 05:14:57;;;;;;;156.23;150.32;;;-4.70;99.90;;;;;;5099827;28;20032;-86
2023/01/19 05:17:23;;;;;;;160.02;153.98;;;-4.60;99.90;;;;;;5105697;28;20028;-86
2023/01/19 05:19:48;;;;;;;143.80;138.13;;;-4.60;99.90;;;;;;5100419;28;20066;-85
2023/01/19 05:22:15;;;;;;;177.98;171.15;;;-4.50;99.90;;;;;;5107868;28;20032;-84
2023/01/19 05:24:40;;;;;;;138.77;132.40;;;-4.50;99.90;;;;;;5103594;28;20032;-83
2023/01/19 05:27:09;;;;;;;111.70;106.90;;;-4.50;99.90;;;;;;5107554;28;20035;-84
2023/01/19 05:29:35;;;;;;;89.88;85.93;;;-4.50;99.90;;;;;;5103600;28;20058;-83
2023/01/19 05:32:01;;;;;;;109.35;103.35;;;-4.60;99.90;;;;;;5096541;28;20590;-82
2023/01/19 05:34:28;;;;;;;100.28;96.05;;;-4.80;99.90;;;;;;5107896;28;20035;-86
2023/01/19 05:36:54;;;;;;;109.95;105.15;;;-4.80;99.90;;;;;;5100295;28;20393;-82
2023/01/19 05:39:19;;;;;;;244.50;233.70;;;-4.80;99.90;;;;;;5094167;28;20036;-86
2023/01/19 05:41:46;;;;;;;154.18;147.77;;;-4.80;99.90;;;;;;5100834;28;20539;-83
2023/01/19 05:44:12;;;;;;;125.65;120.10;;;-4.70;99.90;;;;;;5103477;28;20027;-84
2023/01/19 05:46:40;;;;;;;174.68;167.02;;;-4.80;99.90;;;;;;5103109;28;20211;-84
2023/01/19 05:49:06;;;;;;;192.43;184.75;;;-4.80;99.90;;;;;;5106019;28;20085;-85
2023/01/19 05:51:44;;;;;;;171.65;164.35;;;-4.90;99.90;;;;;;5107356;28;20059;-83
2023/01/19 05:54:15;;;;;;;192.70;184.93;;;-4.90;99.90;;;;;;5101342;28;20035;-83
2023/01/19 05:56:41;;;;;;;175.90;168.40;;;-5.00;99.90;;;;;;5102464;28;20032;-83
2023/01/19 05:59:07;;;;;;;164.63;158.10;;;-5.00;99.90;;;;;;5090849;28;20410;-85
2023/01/19 06:01:37;;;;;;;156.52;149.88;;;-5.00;99.90;;;;;;5085989;28;20032;-83
2023/01/19 06:04:03;;;;;;;199.02;191.27;;;-5.10;99.90;;;;;;5085408;28;20486;-84
2023/01/19 06:06:29;;;;;;;189.13;181.15;;;-5.10;99.90;;;;;;5088107;28;20899;-84
2023/01/19 06:08:55;;;;;;;195.60;187.55;;;-5.10;99.90;;;;;;5103826;28;20091;-82
2023/01/19 06:11:21;;;;;;;190.30;181.55;;;-5.10;99.90;;;;;;5089194;28;20033;-86
2023/01/19 06:13:47;;;;;;;161.45;154.80;;;-5.20;99.90;;;;;;5099215;28;20027;-84
2023/01/19 06:16:13;;;;;;;231.57;221.88;;;-5.20;99.90;;;;;;5091630;28;20035;-82
2023/01/19 06:18:42;;;;;;;209.20;200.88;;;-5.20;99.90;;;;;;5097952;28;20048;-83
2023/01/19 06:21:09;;;;;;;205.52;197.38;;;-5.10;99.90;;;;;;5091106;28;20443;-82
2023/01/19 06:23:35;;;;;;;200.23;192.57;;;-5.20;99.90;;;;;;5092011;28;20111;-83
2023/01/19 06:26:03;;;;;;;177.88;170.38;;;-5.30;99.90;;;;;;5091771;28;20059;-81
2023/01/19 06:28:29;;;;;;;178.50;170.80;;;-5.30;99.90;;;;;;5088304;28;20032;-82
2023/01/19 06:30:56;;;;;;;203.80;195.15;;;-5.30;99.90;;;;;;5100202;28;20024;-85
2023/01/19 06:33:24;;;;;;;207.88;197.57;;;-5.20;99.90;;;;;;5090900;28;20028;-83
2023/01/19 06:35:53;;;;;;;263.65;252.80;;;-5.10;99.90;;;;;;5084088;28;20028;-87
2023/01/19 06:38:19;;;;;;;286.75;273.20;;;-5.10;99.90;;;;;;5099865;28;20213;-85
2023/01/19 06:40:57;;;;;;;313.48;300.13;;;-5.10;99.90;;;;;;5096793;28;20039;-89
2023/01/19 06:43:30;;;;;;;228.23;219.52;;;-5.00;99.90;;;;;;5105023;28;20107;-85
2023/01/19 06:45:56;;;;;;;225.25;215.10;;;-5.00;99.90;;;;;;5092681;28;20548;-79
2023/01/19 06:48:24;;;;;;;236.52;226.25;;;-5.10;99.90;;;;;;5099076;28;20058;-77
2023/01/19 06:50:51;;;;;;;237.65;227.05;;;-5.10;99.90;;;;;;5087378;28;20046;-80
2023/01/19 06:53:19;;;;;;;310.15;295.55;;;-5.00;99.90;;;;;;5095810;28;20116;-84
2023/01/19 06:55:45;;;;;;;207.38;198.70;;;-5.10;99.90;;;;;;5095775;28;20034;-84
2023/01/19 06:58:12;;;;;;;338.60;324.25;;;-5.10;99.90;;;;;;5095204;28;20382;-84
2023/01/19 07:00:38;;;;;;;228.73;219.88;;;-5.00;99.90;;;;;;5098349;28;20030;-87
2023/01/19 07:03:06;;;;;;;336.98;320.65;;;-5.10;99.90;;;;;;5096187;28;20028;-85
2023/01/19 07:05:34;;;;;;;253.98;244.35;;;-5.10;99.90;;;;;;5090854;28;20021;-85
2023/01/19 07:08:00;;;;;;;196.10;188.63;;;-5.20;99.90;;;;;;5092205;28;20119;-86
2023/01/19 07:10:26;;;;;;;191.20;182.90;;;-5.20;99.90;;;;;;5096093;28;20098;-84
2023/01/19 07:12:52;;;;;;;187.82;180.18;;;-5.30;99.90;;;;;;5103745;28;20051;-85
2023/01/19 07:15:21;;;;;;;187.65;179.95;;;-5.30;99.90;;;;;;5079304;28;20684;-85
2023/01/19 07:17:47;;;;;;;215.40;206.98;;;-5.40;99.90;;;;;;5098200;28;20027;-84
2023/01/19 07:20:13;;;;;;;263.85;251.52;;;-5.40;99.90;;;;;;5098858;28;20034;-86
2023/01/19 07:22:42;;;;;;;239.80;229.85;;;-5.50;99.90;;;;;;5094973;28;20020;-86
2023/01/19 07:25:10;;;;;;;247.65;238.45;;;-5.40;99.90;;;;;;5097044;28;20066;-82
2023/01/19 07:27:35;;;;;;;282.42;269.25;;;-5.30;99.90;;;;;;5089427;28;20020;-84
2023/01/19 07:30:01;;;;;;;200.55;192.00;;;-5.20;99.90;;;;;;5103211;28;20046;-83
2023/01/19 07:32:28;;;;;;;206.40;198.35;;;-5.10;99.90;;;;;;5090397;28;20071;-85
2023/01/19 07:34:57;;;;;;;207.90;199.27;;;-5.10;99.90;;;;;;5103339;28;20047;-85
2023/01/19 07:37:23;;;;;;;215.10;205.40;;;-5.00;99.90;;;;;;5099241;28;20036;-85
2023/01/19 07:39:48;;;;;;;292.50;280.20;;;-5.00;99.90;;;;;;5099148;28;20031;-83
2023/01/19 07:42:14;;;;;;;257.15;246.93;;;-5.00;99.90;;;;;;5100565;28;20028;-83
2023/01/19 07:44:40;;;;;;;416.92;394.13;;;-5.00;99.90;;;;;;5097111;28;20438;-83
2023/01/19 07:47:09;;;;;;;284.55;272.75;;;-4.80;99.90;;;;;;5103622;28;20629;-83
2023/01/19 07:49:35;;;;;;;381.25;363.85;;;-4.80;99.90;;;;;;5096970;28;20030;-85
2023/01/19 07:52:01;;;;;;;261.70;251.02;;;-4.80;99.90;;;;;;5093943;28;20041;-84
2023/01/19 07:54:30;;;;;;;342.23;327.52;;;-4.80;99.90;;;;;;5099244;28;20513;-86
2023/01/19 07:56:56;;;;;;;269.50;258.80;;;-4.70;99.90;;;;;;5093743;28;20034;-86
2023/01/19 07:59:21;;;;;;;311.73;295.05;;;-4.70;99.90;;;;;;5095588;28;20798;-85
2023/01/19 08:01:47;;;;;;;315.10;301.00;;;-4.70;99.90;;;;;;5095728;28;20036;-86
2023/01/19 08:04:13;;;;;;;271.20;260.27;;;-4.70;99.90;;;;;;5095065;28;20030;-85
2023/01/19 08:06:42;;;;;;;271.05;260.30;;;-4.60;99.90;;;;;;5099023;28;20378;-85
2023/01/19 08:09:08;;;;;;;337.70;323.05;;;-4.50;99.90;;;;;;5087562;28;20111;-84
2023/01/19 08:11:34;;;;;;;343.60;326.67;;;-4.40;99.90;;;;;;5092547;28;20052;-86
2023/01/19 08:14:00;;;;;;;401.50;382.95;;;-4.30;99.90;;;;;;5095884;28;20710;-83
2023/01/19 08:16:26;;;;;;;383.83;357.45;;;-4.40;99.90;;;;;;5094004;28;20434;-83
2023/01/19 08:18:52;;;;;;;411.65;393.45;;;-4.20;99.90;;;;;;5099463;28;20075;-85
2023/01/19 08:21:18;;;;;;;352.48;337.30;;;-4.20;99.90;;;;;;5092578;28;20059;-84
2023/01/19 08:23:52;;;;;;;302.83;290.23;;;-4.20;99.90;;;;;;5085520;28;20056;-86
2023/01/19 08:26:28;;;;;;;427.00;403.20;;;-4.10;99.90;;;;;;5096506;28;20019;-84
2023/01/19 08:28:55;;;;;;;373.08;353.38;;;-4.10;99.90;;;;;;5089089;28;20459;-86
2023/01/19 08:31:21;;;;;;;209.55;201.60;;;-4.00;99.90;;;;;;5084665;28;20023;-85
2023/01/19 08:33:47;;;;;;;352.95;330.92;;;-4.00;99.90;;;;;;5096440;28;20035;-86
2023/01/19 08:36:12;;;;;;;359.55;343.20;;;-3.90;99.90;;;;;;5095460;28;20066;-85
2023/01/19 08:38:42;;;;;;;227.73;219.02;;;-3.90;99.90;;;;;;5097924;28;20123;-86
2023/01/19 08:41:08;;;;;;;304.05;289.48;;;-3.80;99.90;;;;;;5097439;28;20024;-85
2023/01/19 08:43:34;;;;;;;311.60;295.67;;;-3.70;99.90;;;;;;5095243;28;20025;-85
2023/01/19 08:46:02;;;;;;;286.83;275.50;;;-3.80;99.90;;;;;;5100977;28;20039;-85
2023/01/19 08:48:28;;;;;;;461.90;431.90;;;-3.70;99.90;;;;;;5091626;28;20428;-87
2023/01/19 08:50:54;;;;;;;358.10;334.45;;;-3.70;99.90;;;;;;5104404;28;20089;-84
2023/01/19 08:53:22;;;;;;;452.48;429.88;;;-3.60;99.90;;;;;;5090770;28;20520;-85
2023/01/19 08:55:48;;;;;;;409.38;385.42;;;-3.50;99.90;;;;;;5097795;28;20024;-84
2023/01/19 08:58:14;;;;;;;357.20;339.90;;;-3.50;99.90;;;;;;5097210;28;20028;-86
2023/01/19 09:00:40;;;;;;;573.50;534.83;;;-3.40;99.90;;;;;;5091957;28;20088;-86
2023/01/19 09:03:08;;;;;;;458.52;436.42;;;-3.30;99.90;;;;;;5101690;28;20104;-85
2023/01/19 09:05:37;;;;;;;518.53;491.20;;;-3.20;99.90;;;;;;5092779;28;20367;-86
2023/01/19 09:08:08;;;;;;;260.00;249.68;;;-3.20;99.90;;;;;;5099902;28;20033;-85
2023/01/19 09:10:36;;;;;;;313.65;300.65;;;-3.00;99.90;;;;;;5096006;28;20031;-86
2023/01/19 09:13:03;;;;;;;285.98;274.15;;;-2.90;99.90;;;;;;5096984;28;20028;-84
2023/01/19 09:15:32;;;;;;;335.92;322.25;;;-2.80;99.90;;;;;;5095856;28;20068;-84
2023/01/19 09:17:58;;;;;;;330.02;314.98;;;-2.70;99.90;;;;;;5093767;28;20063;-84
2023/01/19 09:20:24;;;;;;;415.38;396.00;;;-2.60;99.90;;;;;;5098475;28;20848;-84
2023/01/19 09:22:50;;;;;;;397.02;368.00;;;-2.60;99.90;;;;;;5093852;28;20173;-85
2023/01/19 09:25:16;;;;;;;376.45;359.23;;;-2.50;99.90;;;;;;5095002;28;20135;-83
2023/01/19 09:27:44;;;;;;;319.90;305.98;;;-2.40;99.90;;;;;;5096839;28;20024;-84
2023/01/19 09:30:10;;;;;;;296.70;284.23;;;-2.30;99.90;;;;;;5095718;28;20024;-85
2023/01/19 09:32:36;;;;;;;310.13;295.55;;;-2.30;99.90;;;;;;5088614;28;20038;-85
2023/01/19 09:35:02;;;;;;;352.80;328.15;;;-2.20;99.90;;;;;;5096109;28;20035;-85
2023/01/19 09:37:28;;;;;;;540.42;487.10;;;-2.20;99.90;;;;;;5096428;28;20507;-86
2023/01/19 09:39:53;;;;;;;263.90;250.82;;;-2.30;99.90;;;;;;5093545;28;20035;-85
2023/01/19 09:42:29;;;;;;;214.57;205.88;;;-2.10;99.90;;;;;;5102080;28;20055;-85
2023/01/19 09:44:56;;;;;;;452.23;423.75;;;-2.10;99.90;;;;;;5087575;28;20091;-85
2023/01/19 09:47:28;;;;;;;263.00;251.35;;;-2.10;99.90;;;;;;5089875;28;20564;-83
2023/01/19 09:50:23;;;;;;;248.43;237.98;;;-2.00;99.90;;;;;;5102205;28;20139;-85
2023/01/19 09:52:56;;;;;;;451.95;416.23;;;-2.00;99.90;;;;;;5094422;28;20019;-85
2023/01/19 09:55:25;;;;;;;198.02;187.60;;;-2.00;99.90;;;;;;5099763;28;20024;-84
2023/01/19 09:57:53;;;;;;;322.35;295.50;;;-2.00;99.90;;;;;;5097987;28;20020;-85
2023/01/19 10:00:23;;;;;;;185.95;177.52;;;-1.90;99.90;;;;;;5101367;28;20066;-85
2023/01/19 10:02:55;;;;;;;190.93;181.10;;;-2.00;99.90;;;;;;5095433;28;20023;-86
2023/01/19 10:05:49;;;;;;;252.98;241.00;;;-2.10;99.90;;;;;;5097425;28;20477;-85
2023/01/19 10:08:34;;;;;;;87.85;83.22;;;-2.00;99.90;;;;;;5094503;28;20630;-85
2023/01/19 10:11:01;;;;;;;198.45;189.85;;;-2.00;99.90;;;;;;5088775;28;20402;-85
2023/01/19 10:13:26;;;;;;;380.25;356.45;;;-1.70;99.90;;;;;;5097413;28;20024;-84
2023/01/19 10:16:32;;;;;;;443.60;410.23;;;-1.50;99.90;;;;;;5099906;28;20579;-86
2023/01/19 10:19:29;;;;;;;127.25;120.85;;;-1.20;99.90;;;;;;5100029;28;20048;-85
2023/01/19 10:21:58;;;;;;;100.15;94.53;;;-1.00;99.90;;;;;;5090755;28;20040;-83
2023/01/19 10:24:55;;;;;;;151.85;145.20;;;-0.70;99.90;;;;;;5099380;28;20039;-83
2023/01/19 10:27:27;;;;;;;156.15;148.77;;;-0.90;99.90;;;;;;5093534;28;20070;-83
2023/01/19 10:29:53;;;;;;;93.82;89.80;;;-0.70;99.90;;;;;;5100298;28;20135;-84
2023/01/19 10:32:29;;;;;;;178.82;168.38;;;-0.50;99.90;;;;;;5093710;28;20779;-82
2023/01/19 10:34:58;;;;;;;68.35;64.90;;;-0.40;99.80;;;;;;5095480;28;20114;-82
2023/01/19 10:37:28;;;;;;;56.58;53.67;;;-0.40;98.80;;;;;;5097166;28;20107;-84
2023/01/19 10:39:59;;;;;;;45.70;42.95;;;-0.50;99.30;;;;;;5101008;28;20029;-84
2023/01/19 10:42:28;;;;;;;187.77;172.80;;;-0.40;99.10;;;;;;5096056;28;20036;-83
2023/01/19 10:44:54;;;;;;;45.80;42.22;;;-0.30;98.70;;;;;;5093520;28;20461;-83
2023/01/19 10:47:26;;;;;;;157.90;147.05;;;0.00;98.70;;;;;;5096883;28;20064;-82
2023/01/19 10:49:51;;;;;;;44.95;42.22;;;-0.30;97.20;;;;;;5090478;28;20017;-82
2023/01/19 10:52:26;;;;;;;47.33;44.70;;;-0.20;98.50;;;;;;5096985;28;20081;-83
2023/01/19 10:54:52;;;;;;;34.45;32.05;;;-0.30;97.80;;;;;;5098720;28;20034;-82
2023/01/19 10:57:31;;;;;;;47.20;42.90;;;-0.30;98.00;;;;;;5097778;28;20024;-83
2023/01/19 10:59:57;;;;;;;38.55;35.95;;;-0.30;98.00;;;;;;5095558;28;20036;-82
2023/01/19 11:02:29;;;;;;;60.67;57.42;;;-0.10;98.30;;;;;;5095345;28;20050;-81
2023/01/19 11:05:19;;;;;;;94.82;88.07;;;-0.30;97.70;;;;;;5077282;28;20558;-85
2023/01/19 11:07:45;;;;;;;32.90;30.52;;;-0.40;97.50;;;;;;5097590;28;20035;-84
2023/01/19 11:10:19;;;;;;;34.30;31.83;;;-0.60;97.90;;;;;;5103110;28;20038;-82
2023/01/19 11:12:54;;;;;;;80.30;74.80;;;-0.30;98.80;;;;;;5097497;28;20062;-85
2023/01/19 11:15:28;;;;;;;32.47;30.27;;;-0.30;98.00;;;;;;5098838;28;20118;-86
2023/01/19 11:17:54;;;;;;;35.22;33.08;;;-0.30;97.60;;;;;;5095051;28;20044;-85
2023/01/19 11:20:22;;;;;;;36.25;32.85;;;-0.30;97.50;;;;;;5080996;28;20108;-85
2023/01/19 11:23:04;;;;;;;77.10;73.18;;;-0.30;97.60;;;;;;5096685;28;20131;-86
2023/01/19 11:25:32;;;;;;;104.05;96.72;;;-0.50;96.40;;;;;;5094860;28;20028;-84
2023/01/19 11:27:59;;;;;;;66.75;62.67;;;-0.30;96.60;;;;;;5099319;28;20047;-82
2023/01/19 11:30:26;;;;;;;186.63;166.65;;;-0.10;95.50;;;;;;5090165;28;20025;-83
2023/01/19 11:32:52;;;;;;;35.33;32.75;;;-0.20;94.80;;;;;;5088476;28;20031;-82
2023/01/19 11:35:39;;;;;;;39.00;36.42;;;0.00;95.80;;;;;;5093263;28;20051;-82
2023/01/19 11:38:26;;;;;;;31.30;28.90;;;0.20;95.00;;;;;;5097972;28;20040;-82
2023/01/19 11:40:55;;;;;;;38.33;35.45;;;0.40;94.20;;;;;;5090631;28;20032;-82
2023/01/19 11:43:23;;;;;;;35.97;33.97;;;0.40;94.10;;;;;;5072660;28;20019;-82
2023/01/19 11:45:50;;;;;;;20.98;19.38;;;0.30;93.30;;;;;;5100828;28;20028;-82
2023/01/19 11:48:38;;;;;;;26.85;25.27;;;0.30;92.60;;;;;;5094404;28;20031;-82
2023/01/19 11:51:10;;;;;;;34.50;32.30;;;0.20;92.90;;;;;;5086550;28;20024;-81
2023/01/19 11:53:36;;;;;;;18.05;16.77;;;0.40;92.10;;;;;;5097829;28;20056;-81
2023/01/19 11:56:08;;;;;;;35.88;33.60;;;0.60;91.70;;;;;;5104861;28;20067;-81
2023/01/19 11:58:38;;;;;;;18.52;16.83;;;0.50;91.40;;;;;;5091425;28;20432;-82
2023/01/19 12:01:10;;;;;;;18.75;16.85;;;0.90;91.70;;;;;;5100616;28;20028;-82
2023/01/19 12:03:40;;;;;;;19.38;16.73;;;1.20;91.50;;;;;;5096394;28;20521;-81
2023/01/19 12:06:11;;;;;;;;;;;0.90;90.80;;;;;;5098768;28;20054;-82
2023/01/19 12:08:45;;;;;;;15.27;14.07;;;0.90;91.10;;;;;;5097313;28;19912;-82
2023/01/19 12:11:16;;;;;;;16.08;15.07;;;0.70;91.10;;;;;;5072295;28;20069;-82
2023/01/19 12:13:44;;;;;;;33.28;30.60;;;0.50;91.40;;;;;;5101087;28;20055;-82
2023/01/19 12:16:18;;;;;;;16.90;15.60;;;0.50;90.90;;;;;;5072482;28;20458;-83
2023/01/19 12:18:54;;;;;;;19.83;18.02;;;0.70;90.80;;;;;;5083212;28;20050;-82
2023/01/19 12:21:20;;;;;;;17.50;15.77;;;1.10;90.10;;;;;;5092818;28;20092;-82
2023/01/19 12:23:46;;;;;;;50.78;47.38;;;1.20;88.40;;;;;;5089258;28;20096;-82
2023/01/19 12:26:48;;;;;;;25.77;22.50;;;1.10;87.70;;;;;;5094679;28;20664;-83
2023/01/19 12:29:20;;;;;;;14.02;13.13;;;1.00;89.40;;;;;;5090498;28;20024;-83
2023/01/19 12:32:16;;;;;;;19.17;17.73;;;1.00;87.10;;;;;;5093059;28;20123;-83
2023/01/19 12:34:45;;;;;;;14.82;11.55;;;0.70;87.20;;;;;;5085380;28;20592;-82
2023/01/19 12:37:37;;;;;;;15.02;13.85;;;0.90;87.50;;;;;;5103853;27;20091;-83
2023/01/19 12:40:27;;;;;;;14.40;13.30;;;1.00;86.60;;;;;;5090696;28;20042;-83